Timothy Martin

Recruteur - Brentford
19 Nov 2028
Dimanche
Processus

Personnalité

Adaptabilité (1) Ambition (16) Controverse (5) Loyauté (13) Pression (3) Professionnalisme (7) Sportivité (19) Tempérament (1)

Profil

Style d'entraînement Démocratique
Diplôme National B
Détermination 13
Gestion des joueurs 10
Motivation 6
Discipline 7
Satisfaction professionnelle
100%
Fatigue
0%
Rôle Recruteur
Salaire 71.4K p/s
Contrat 14.03.2029

Performance

Comportement Bon
Efficacité de l'entraînement
43%
Développement des joueurs
60%
Prévention des blessures
70%
Mise en place tactique
30%

Événements récents

A participé à une réunion de recrutement maintenant
A participé à une réunion de recrutement maintenant
A recommandé une cible de transfert maintenant
A recommandé une cible de transfert maintenant
A recommandé une cible de transfert 7j
A recommandé une cible de transfert 7j
A recommandé une cible de transfert 7j
A recommandé une cible de transfert 7j

Suivi en cours

150
Joueur Club Statut Capacité Confiance Observé Dernière observation Dernier vote
Giovanni Leoni Lincoln City Actif 153 / 156 40% 2 14.08.2028 -
Alessio Insignito Spezia Actif 98 / 122 40% 1 14.08.2028 -
Kasey McAteer Barnsley Perdu 147 / 133 62% 1 24.07.2028 -
Shea Lacey Crystal Palace Perdu 129 / 134 40% 3 05.06.2028 -
Miguel Figueiredo Benfica Actif 124 / 123 40% 2 03.06.2028 -
Jan Bürger Northampton Town Actif 122 / 133 40% 7 31.05.2028 -
Kerim Alajbegović Modena Actif 137 / 133 40% 6 29.05.2028 -
Martim Cunha Porto Actif 116 / 109 40% 8 28.05.2028 -
Mateus Mané Burnley Actif 139 / 152 40% 7 28.05.2028 -
Eli Junior Kroupi Bournemouth Actif 152 / 155 40% 8 27.05.2028 -
Ben Broggio Mansfield Town Actif 107 / 125 40% 2 27.05.2028 -
Jake Evans Crewe Alexandra Actif 104 / 132 40% 6 23.05.2028 -
Otto Stange Borussia Mönchengladbach Actif 121 / 137 40% 2 22.05.2028 -
Rio Ngumoha Plymouth Argyle Actif 136 / 140 40% 5 21.05.2028 -
Gabriel Mec Feirense Actif 133 / 126 40% 3 21.05.2028 -
Fletcher Boyd Accrington Stanley Actif 103 / 112 40% 2 17.05.2028 -
Giovanni Cantizano Fulham Actif 127 / 119 40% 2 17.05.2028 -
Oskar Pietuszewski Estrela da Amadora Actif 137 / 127 40% 4 16.05.2028 -
Trey Nyoni Rotherham United Actif 142 / 140 40% 11 15.05.2028 -
Ryan Kavuma-McQueen Accrington Stanley Actif 119 / 135 40% 4 14.05.2028 -
Gabe Forsyth Colchester United Actif 113 / 112 40% 8 11.05.2028 -
Oscar Schwartau Norwich City Actif 131 / 135 40% 3 05.05.2028 -
Sindre Walle Egeli Udinese Actif 138 / 138 40% 6 04.05.2028 -
Omar Khedr Gillingham Actif 117 / 111 40% 4 03.05.2028 -
İsak Vural Audace Cerignola Actif 123 / 132 40% 1 03.05.2028 -
Leo Pecover Swindon Town Actif 99 / 101 40% 3 01.05.2028 -
Amin Nabizada Exeter City Actif 120 / 113 40% 1 29.04.2028 -
Ibrahim Fullah Charlton Athletic Actif 119 / 117 40% 3 25.04.2028 -
Suleman Sani Werder Bremen Actif 135 / 131 40% 1 22.04.2028 -
Christos Mouzakitis Hull City Actif 142 / 145 40% 2 19.04.2028 -
Vincenzo Damiano Atalanta Actif 101 / 111 40% 1 19.04.2028 -
Eduardo Fernandes Benfica Actif 123 / 122 40% 1 15.04.2028 -
Luca Williams-Barnett Walsall Actif 123 / 123 40% 3 10.04.2028 -
Bernardo Lima Porto Actif 112 / 120 40% 4 08.04.2028 -
Henrique Carmo Sochi Actif 117 / 138 40% 3 04.04.2028 -
Luke Brooke-Smith Chesterfield Actif 98 / 108 40% 2 04.04.2028 -
André Miranda Porto Actif 111 / 115 40% 3 03.04.2028 -
Daniel Banjaqui Benfica Actif 129 / 127 40% 2 03.04.2028 -
Endrick Boca Juniors Actif 153 / 167 40% 1 02.04.2028 -
Rafael Camacho Sporting CP Actif 114 / 109 40% 1 01.04.2028 -
Lander Astiazarán Real Sociedad Actif 108 / 109 40% 1 27.03.2028 -
Honest Ahanor Atalanta Actif 142 / 138 40% 3 26.03.2028 -
João Abreu Porto Actif 98 / 113 40% 1 24.03.2028 -
Josh Acheampong Everton Actif 141 / 150 40% 7 21.03.2028 -
Louis Zecevic-John Colchester United Actif 90 / 114 40% 1 19.03.2028 -
Tomás Peixoto Porto Actif 95 / 111 40% 1 17.03.2028 -
Alphadjo Cissé Lecce Actif 124 / 130 40% 1 14.03.2028 -
Babis Kostoulas Oxford United Actif 141 / 144 40% 3 10.03.2028 -
Peter Amidu Acquah Asante Kotoko Actif 92 / 105 40% 1 01.03.2028 -
Josh Nichols Oldham Athletic Actif 130 / 123 40% 2 29.02.2028 -
Zane Albarus Shrewsbury Town Actif 110 / 111 40% 1 27.02.2028 -
Mads Abrahamsen Zenit Penza Actif 96 / 87 40% 1 22.02.2028 -
Julian Hall Real Salt Lake Actif 95 / 127 40% 2 12.02.2028 -
Colin Guske Orlando City Actif 93 / 107 40% 1 11.02.2028 -
Bazoumana Touré Newcastle United Actif 141 / 156 40% 3 10.02.2028 -
Mao Hosoya Santos Actif 134 / 135 67% 1 01.01.2028 Approuver
Ayden Heaven Portsmouth Actif 144 / 148 40% 4 31.12.2027 -
Tyler Fletcher Rotherham United Actif 113 / 112 40% 3 29.12.2027 -
Victor Hernandez Santa Fe Actif 127 / 122 40% 2 28.12.2027 -
Ruben Ramos LA Galaxy Actif 105 / 120 40% 1 28.12.2027 -
Nana Nuhu WAFA Actif 87 / 101 40% 2 27.12.2027 -
Gideon Manaseh Ikorodu City Actif 94 / 100 40% 1 27.12.2027 -
Archie Gray Southampton Actif 151 / 152 40% 2 26.12.2027 -
Jude Terry Los Angeles Football Club Actif 101 / 89 40% 1 22.12.2027 -
Jonny Shore New York City Actif 96 / 96 40% 2 19.12.2027 -
Harbor Miller LA Galaxy Actif 104 / 98 40% 1 18.12.2027 -
Jayden Danns Bradford City Actif 132 / 134 40% 1 17.12.2027 -
Pedro Baltika Actif 151 / 147 40% 2 13.12.2027 -
Caleb Yirenkyi Coventry City Actif 147 / 146 40% 4 09.12.2027 -
Matias Siltanen Malmo FF Actif 119 / 136 40% 1 08.12.2027 -
Esquerdinha Notts County Actif 125 / 128 40% 2 07.12.2027 -
Agustín Obregón River Plate Actif 120 / 114 40% 1 07.12.2027 -
Olivier Mambwa Young Boys Actif 109 / 125 40% 1 28.11.2027 -
Azizbek To'lqinbekov Bunyodkor Actif 98 / 112 40% 1 25.11.2027 -
Ignacio Fernández Boston River Actif 93 / 101 40% 1 24.11.2027 -
Somtochuwku Ezenabo Kwara United Actif 95 / 102 40% 1 17.11.2027 -
Hosea Michael Remo Stars Actif 81 / 91 40% 3 16.11.2027 -
Lucas Bergvall Tottenham Actif 154 / 146 40% 3 06.11.2027 -
Joel Ezra Enyimba Actif 93 / 105 40% 1 06.11.2027 -
Josh Torquato FC Dallas Actif 99 / 108 40% 1 03.11.2027 -
Aaron Cresswell Stoke City Actif 117 / 108 62% 1 12.07.2027 Approuver
Eliás Montiel Borussia Dortmund Actif 129 / 146 40% 2 21.06.2027 -
Kiani Inge Groningen Actif 112 / 115 40% 1 21.06.2027 -
Sascha Britschgi AC Milan Actif 121 / 127 40% 4 02.06.2027 -
Stanislav Agkatsev Brentford Actif 132 / 133 66% 1 01.06.2027 Approuver
Godwin Oham Warri Wolves Actif 82 / 86 40% 1 30.05.2027 -
Nestory Irankunda Watford Actif 117 / 129 40% 3 27.05.2027 -
Gonçalo Oliveira Benfica Actif 102 / 117 40% 2 27.05.2027 -
Mattia Rutigliano Pro Vercelli Actif 92 / 98 40% 1 27.05.2027 -
Ethan Williams Peterborough United Actif 117 / 118 40% 2 26.05.2027 -
Riley Owen Stevenage Actif 95 / 104 40% 1 26.05.2027 -
Mustapha Jawad Kano Pillars Actif 90 / 88 40% 1 23.05.2027 -
Abubakar Garba Nasarawa United Actif 93 / 103 40% 1 20.05.2027 -
Ezra Mayers West Ham United Actif 123 / 124 40% 4 15.05.2027 -
Kirill Glebov CSKA Moscow Actif 116 / 120 40% 2 15.05.2027 -
Riyad Idrissi Cagliari Actif 121 / 125 40% 1 15.05.2027 -
Olivier Leroux Mouscron Actif 104 / 103 40% 2 09.05.2027 -
Ronan Kpakio AC Milan Actif 120 / 117 40% 2 08.05.2027 -
Daniel Dennis Ikorodu City Actif 95 / 98 40% 2 03.05.2027 -
Issa Yusuf Shooting Stars Actif 87 / 89 40% 1 25.04.2027 -
Maxim Radchenko Rostov Actif 73 / 76 40% 1 22.04.2027 -
Konta Ismaily Actif 77 / 110 40% 1 13.04.2027 -
Kobbie Mainoo Manchester United Actif 151 / 156 40% 4 09.04.2027 -
Tiago Freitas Benfica Actif 107 / 119 40% 2 09.04.2027 -
Jenson Jones Walsall Actif 85 / 92 40% 1 07.04.2027 -
James Dornelly Peterborough United Actif 95 / 106 40% 1 06.04.2027 -
Tommaso Cecotti Carpi Actif 85 / 95 40% 2 01.04.2027 -
Amine Boukamir Charleroi Actif 91 / 97 40% 1 28.03.2027 -
Cam Bragg West Ham United Actif 117 / 128 40% 1 27.03.2027 -
Dean Jali Platinum Stars Actif 89 / 92 40% 1 23.03.2027 -
Charlie Gray Fleetwood Town Actif 94 / 97 40% 1 23.03.2027 -
Jacques Ekomié Wrexham Actif 135 / 134 62% 1 06.01.2027 Approuver
Nicolas Jackson Aston Villa Actif 153 / 143 40% 2 31.12.2026 -
Kevin Fulham Actif 160 / 139 40% 1 31.12.2026 -
Etiosa Ighodaro Kaizer Chiefs Actif 126 / 116 40% 4 29.12.2026 -
Rodrigo Muniz Fulham Actif 129 / 139 40% 5 29.12.2026 -
Tyrese Campbell Sheffield United Actif 138 / 128 40% 1 28.12.2026 -
Jørgen Strand Larsen Brighton Actif 144 / 147 40% 1 27.12.2026 -
Georginio Rutter Brighton Actif 143 / 142 40% 3 26.12.2026 -
Yousef Salech Cardiff City Perdu 127 / 121 40% 1 25.12.2026 -
Joe Gelhardt Hull City Actif 131 / 127 40% 1 23.12.2026 -
Emanuel Emegha Chelsea Actif 132 / 135 40% 2 21.12.2026 -
Wilson Isidor Sunderland Actif 138 / 130 40% 1 17.12.2026 -
Edwin Asamoah Berekum Chelsea Actif 81 / 88 40% 1 17.12.2026 -
Iliman N'Diaye Everton Actif 153 / 159 40% 1 14.12.2026 Plus d'infos
Wandile Duba ASO Chlef Actif 115 / 111 40% 1 11.12.2026 -
Simphiwe Selepe Orlando Pirates Actif 97 / 113 40% 1 10.12.2026 -
Bryan Mbeumo Manchester United Actif 154 / 163 40% 1 09.12.2026 -
Philippe Ndinga Philadelphia Union Actif 99 / 121 40% 1 09.12.2026 -
Cemran Dansin Orlando Pirates Actif 99 / 129 40% 4 07.12.2026 -
Cody Gakpo Liverpool Actif 150 / 166 40% 3 05.12.2026 -
Talles Magno New York City Actif 141 / 118 40% 1 05.12.2026 -
Morrison Agyemang Charlotte Football Club Actif 121 / 131 40% 1 03.12.2026 -
Ilyas Ansah Hull City Actif 131 / 126 40% 1 23.11.2026 -
Aune Heggebø West Bromwich Albion Actif 132 / 127 40% 1 18.11.2026 -
Bénie Traoré New York City Actif 120 / 116 40% 1 17.11.2026 -
Kamaldeen Atiemo Wa All Stars Actif 89 / 105 40% 1 16.11.2026 -
Leonardo Campana New England Revolution Actif 122 / 120 40% 2 12.11.2026 -
Pedro Bravo FC Midtjylland Actif 132 / 136 40% 1 09.11.2026 -
Matheus Cunha Manchester United Actif 150 / 153 40% 1 06.11.2026 -
Kévin Denkey FC Cincinnati Actif 140 / 115 40% 1 29.10.2026 -
Jesus Ferreira Seattle Sounders Actif 113 / 117 40% 1 29.10.2026 -
Ayoub Jabbari FC Cincinnati Actif 98 / 112 40% 1 22.10.2026 -
Mohamed-Ali Cho Hull City Actif 133 / 141 40% 1 21.10.2026 -
Cheikh Sabaly Vancouver Whitecaps Actif 128 / 118 40% 1 14.10.2026 -
Yahaya Ibrahim Plateau United Actif 77 / 90 40% 1 08.10.2026 -
Moisés Caicedo Chelsea Actif 160 / 167 40% 1 20.09.2026 -
Martín Zubimendi Arsenal Actif 173 / 155 40% 1 17.09.2026 -
Florian Wirtz Liverpool Actif 179 / 173 40% 1 15.09.2026 -
Quinten Timber Crystal Palace Actif 144 / 157 40% 1 07.09.2026 -